Time;durP1;ratioP1;P1;durP2;ratioP2;P2;SDS_P1;SDS_P2;PMS_P1;PMS_P2;Temp;Humidity;BMP_temperature;BMP_pressure;BME280_temperature;BME280_humidity;BME280_pressure;Samples;Min_cycle;Max_cycle;Signal;HPM_P1;HPM_P2
2021/06/15 00:02:14;;;;;;;;;8.00;8.00;;;;;;;;5004895;28;8823;-84
2021/06/15 00:04:42;;;;;;;;;7.75;7.75;;;;;;;;5006434;28;8868;-80
2021/06/15 00:07:09;;;;;;;;;7.25;7.25;;;;;;;;5009071;28;8860;-79
2021/06/15 00:09:37;;;;;;;;;6.75;6.75;;;;;;;;5003126;28;8864;-81
2021/06/15 00:12:08;;;;;;;;;7.25;7.25;;;;;;;;5008321;28;8899;-79
2021/06/15 00:14:36;;;;;;;;;8.00;7.50;;;;;;;;5003604;28;8868;-79
2021/06/15 00:17:03;;;;;;;;;7.50;7.00;;;;;;;;5003738;28;8863;-78
2021/06/15 00:19:31;;;;;;;;;7.00;6.75;;;;;;;;5004326;28;9665;-82
2021/06/15 00:21:58;;;;;;;;;8.75;7.75;;;;;;;;5004166;28;9002;-84
2021/06/15 00:24:26;;;;;;;;;7.50;7.25;;;;;;;;5004322;28;8880;-84
2021/06/15 00:26:54;;;;;;;;;9.75;7.75;;;;;;;;5006466;28;8878;-84
2021/06/15 00:29:22;;;;;;;;;6.75;6.75;;;;;;;;5004688;28;9018;-82
2021/06/15 00:31:49;;;;;;;;;9.50;8.00;;;;;;;;5004492;28;8825;-84
2021/06/15 00:34:16;;;;;;;;;8.50;7.25;;;;;;;;5005951;28;8860;-84
2021/06/15 00:36:44;;;;;;;;;8.00;8.00;;;;;;;;5005117;28;8983;-82
2021/06/15 00:39:11;;;;;;;;;8.25;8.25;;;;;;;;5005980;28;8890;-78
2021/06/15 00:41:38;;;;;;;;;10.50;9.25;;;;;;;;5008527;28;8868;-81
2021/06/15 00:44:08;;;;;;;;;7.75;7.75;;;;;;;;5003670;28;8872;-81
2021/06/15 00:46:36;;;;;;;;;8.75;7.00;;;;;;;;5004427;28;8970;-81
2021/06/15 00:49:03;;;;;;;;;8.75;8.50;;;;;;;;5007876;28;8867;-83
2021/06/15 00:51:30;;;;;;;;;7.75;7.75;;;;;;;;5005861;28;9504;-85
2021/06/15 00:53:58;;;;;;;;;7.00;7.00;;;;;;;;5013918;28;8876;-83
2021/06/15 00:56:25;;;;;;;;;10.00;8.75;;;;;;;;5015824;28;8974;-86
2021/06/15 00:58:53;;;;;;;;;6.50;6.25;;;;;;;;5008280;28;8903;-83
2021/06/15 01:01:23;;;;;;;;;7.25;7.25;;;;;;;;5006377;28;8785;-83
2021/06/15 01:03:50;;;;;;;;;9.00;9.00;;;;;;;;5008494;28;8884;-85
2021/06/15 01:06:21;;;;;;;;;8.00;8.00;;;;;;;;5006928;28;8868;-82
2021/06/15 01:08:52;;;;;;;;;9.00;9.00;;;;;;;;5008158;28;8902;-83
2021/06/15 01:11:27;;;;;;;;;7.00;7.00;;;;;;;;5008027;28;8870;-85
2021/06/15 01:14:03;;;;;;;;;6.75;6.75;;;;;;;;5007155;28;8860;-78
2021/06/15 01:16:36;;;;;;;;;7.00;7.00;;;;;;;;5009192;28;8864;-82
2021/06/15 01:19:11;;;;;;;;;7.25;7.25;;;;;;;;5003535;28;9473;-84
2021/06/15 01:21:46;;;;;;;;;8.75;7.00;;;;;;;;5008716;28;8872;-85
2021/06/15 01:24:22;;;;;;;;;9.00;8.75;;;;;;;;5009028;28;8890;-83
2021/06/15 01:27:31;;;;;;;;;9.75;6.00;;;;;;;;5009828;28;8872;-82
2021/06/15 01:30:02;;;;;;;;;7.50;7.50;;;;;;;;4978157;28;8876;-85
2021/06/15 01:32:31;;;;;;;;;9.25;7.50;;;;;;;;5006820;28;8825;-85
2021/06/15 01:34:59;;;;;;;;;7.25;7.25;;;;;;;;5009362;28;8850;-82
2021/06/15 01:37:30;;;;;;;;;9.25;9.25;;;;;;;;5007352;28;8982;-83
2021/06/15 01:39:59;;;;;;;;;8.25;6.00;;;;;;;;5005898;28;8978;-82
2021/06/15 01:42:31;;;;;;;;;8.00;8.00;;;;;;;;5005860;28;8950;-83
2021/06/15 01:45:05;;;;;;;;;7.25;7.00;;;;;;;;5005435;28;9663;-81
2021/06/15 01:47:32;;;;;;;;;7.00;7.00;;;;;;;;5007758;28;8876;-85
2021/06/15 01:50:02;;;;;;;;;7.00;7.00;;;;;;;;5007863;28;9645;-84
2021/06/15 01:52:34;;;;;;;;;7.25;7.25;;;;;;;;5002668;28;8894;-84
2021/06/15 01:55:02;;;;;;;;;8.00;8.00;;;;;;;;5000834;28;9680;-81
2021/06/15 01:57:30;;;;;;;;;7.00;7.00;;;;;;;;5001359;28;9005;-83
2021/06/15 02:00:02;;;;;;;;;4.00;4.00;;;;;;;;5006751;28;8878;-80
2021/06/15 02:02:30;;;;;;;;;9.00;7.50;;;;;;;;5005992;28;8841;-79
2021/06/15 02:04:57;;;;;;;;;8.75;7.00;;;;;;;;5006244;28;8864;-79
2021/06/15 02:07:28;;;;;;;;;9.75;8.25;;;;;;;;5005245;28;8982;-80
2021/06/15 02:10:00;;;;;;;;;11.75;9.75;;;;;;;;5009401;28;8873;-84
2021/06/15 02:12:30;;;;;;;;;6.25;6.25;;;;;;;;5006828;28;8872;-82
2021/06/15 02:14:58;;;;;;;;;7.25;7.25;;;;;;;;5005418;28;8903;-78
2021/06/15 02:17:28;;;;;;;;;6.50;6.50;;;;;;;;5002600;28;8902;-82
2021/06/15 02:19:56;;;;;;;;;8.75;8.25;;;;;;;;5005081;28;8987;-79
2021/06/15 02:22:24;;;;;;;;;8.25;8.25;;;;;;;;5006671;28;9006;-83
2021/06/15 02:24:55;;;;;;;;;10.75;8.50;;;;;;;;5003973;28;8880;-83
2021/06/15 02:27:23;;;;;;;;;7.50;7.50;;;;;;;;5012313;28;8880;-84
2021/06/15 02:29:53;;;;;;;;;9.75;9.75;;;;;;;;5006406;28;8868;-81
2021/06/15 02:32:25;;;;;;;;;8.00;8.00;;;;;;;;5004416;28;8824;-79
2021/06/15 02:34:54;;;;;;;;;9.00;9.00;;;;;;;;5004996;28;8891;-80
2021/06/15 02:37:27;;;;;;;;;13.50;10.50;;;;;;;;5012394;28;8868;-83
2021/06/15 02:39:58;;;;;;;;;5.75;5.75;;;;;;;;5004607;28;8916;-84
2021/06/15 02:42:27;;;;;;;;;8.25;8.25;;;;;;;;5008247;28;9912;-81
2021/06/15 02:44:58;;;;;;;;;9.25;9.25;;;;;;;;5006113;28;9002;-81
2021/06/15 02:47:26;;;;;;;;;8.25;8.25;;;;;;;;5009145;28;8992;-83
2021/06/15 02:49:58;;;;;;;;;9.00;9.00;;;;;;;;5006889;28;8864;-78
2021/06/15 02:52:35;;;;;;;;;9.50;9.50;;;;;;;;5007312;28;8856;-81
2021/06/15 02:55:05;;;;;;;;;9.00;9.00;;;;;;;;5004028;28;8891;-78
2021/06/15 02:57:33;;;;;;;;;5.75;5.75;;;;;;;;5010312;28;8881;-82
2021/06/15 03:00:00;;;;;;;;;12.25;10.75;;;;;;;;5004681;28;8844;-80
2021/06/15 03:02:28;;;;;;;;;11.00;9.00;;;;;;;;5008225;28;8939;-78
2021/06/15 03:04:57;;;;;;;;;9.25;9.25;;;;;;;;5005764;28;8860;-76
2021/06/15 03:07:24;;;;;;;;;9.00;9.00;;;;;;;;5011765;28;9677;-80
2021/06/15 03:09:51;;;;;;;;;11.75;11.75;;;;;;;;5003786;28;8864;-80
2021/06/15 03:12:20;;;;;;;;;10.75;10.75;;;;;;;;5006086;28;8872;-84
2021/06/15 03:14:52;;;;;;;;;9.00;9.00;;;;;;;;5004836;28;8985;-85
2021/06/15 03:17:21;;;;;;;;;6.75;6.75;;;;;;;;5002294;28;8879;-86
2021/06/15 03:19:53;;;;;;;;;10.75;10.75;;;;;;;;5006009;28;8876;-82
2021/06/15 03:22:23;;;;;;;;;10.50;10.50;;;;;;;;5006123;28;8986;-85
2021/06/15 03:24:54;;;;;;;;;12.50;10.25;;;;;;;;4998226;28;8860;-83
2021/06/15 03:27:31;;;;;;;;;11.75;10.00;;;;;;;;5007081;28;8880;-85
2021/06/15 03:30:00;;;;;;;;;14.00;14.00;;;;;;;;5005824;28;8896;-80
2021/06/15 03:32:28;;;;;;;;;13.25;12.00;;;;;;;;5005558;28;9589;-83
2021/06/15 03:34:56;;;;;;;;;12.00;9.00;;;;;;;;5005995;28;8868;-82
2021/06/15 03:37:27;;;;;;;;;12.00;10.75;;;;;;;;5002065;28;8864;-83
2021/06/15 03:39:57;;;;;;;;;11.00;11.00;;;;;;;;5005560;28;8868;-84
2021/06/15 03:42:27;;;;;;;;;6.00;6.00;;;;;;;;5004642;28;8868;-80
2021/06/15 03:44:58;;;;;;;;;12.00;12.00;;;;;;;;5004173;28;8864;-81
2021/06/15 03:47:26;;;;;;;;;9.50;8.75;;;;;;;;5004429;28;8872;-82
2021/06/15 03:49:55;;;;;;;;;12.25;12.25;;;;;;;;5003642;28;8866;-84
2021/06/15 03:52:27;;;;;;;;;15.00;13.75;;;;;;;;5004661;28;8863;-81
2021/06/15 03:54:55;;;;;;;;;12.50;11.75;;;;;;;;5014411;28;8898;-84
2021/06/15 03:57:24;;;;;;;;;15.75;14.75;;;;;;;;5006544;28;8992;-85
2021/06/15 03:59:52;;;;;;;;;17.50;16.00;;;;;;;;5004542;28;8884;-77
2021/06/15 04:02:21;;;;;;;;;14.25;14.25;;;;;;;;5007489;28;8816;-85
2021/06/15 04:04:49;;;;;;;;;15.00;15.00;;;;;;;;5006200;28;8893;-76
2021/06/15 04:07:19;;;;;;;;;13.50;11.50;;;;;;;;5008102;28;8884;-79
2021/06/15 04:09:49;;;;;;;;;11.25;11.25;;;;;;;;5007531;28;8868;-86
2021/06/15 04:12:17;;;;;;;;;11.75;11.75;;;;;;;;5008197;28;8880;-85
2021/06/15 04:14:46;;;;;;;;;13.50;12.50;;;;;;;;5008728;28;8868;-83
2021/06/15 04:17:16;;;;;;;;;13.25;13.25;;;;;;;;5014115;28;9003;-79
2021/06/15 04:19:45;;;;;;;;;15.00;15.00;;;;;;;;5004157;28;8942;-80
2021/06/15 04:22:14;;;;;;;;;14.25;12.50;;;;;;;;4999363;28;8901;-80
2021/06/15 04:24:48;;;;;;;;;12.00;10.25;;;;;;;;5001516;28;8867;-81
2021/06/15 04:27:20;;;;;;;;;11.75;11.75;;;;;;;;5002856;28;9026;-82
2021/06/15 04:29:47;;;;;;;;;12.75;10.00;;;;;;;;5002829;28;8868;-81
2021/06/15 04:32:19;;;;;;;;;13.25;13.25;;;;;;;;5003775;28;8845;-79
2021/06/15 04:34:52;;;;;;;;;14.75;14.50;;;;;;;;5009404;28;8878;-83
2021/06/15 04:37:20;;;;;;;;;13.25;13.25;;;;;;;;4994735;28;8872;-80
2021/06/15 04:39:50;;;;;;;;;14.25;14.25;;;;;;;;5000575;28;8971;-82
2021/06/15 04:42:25;;;;;;;;;15.25;15.00;;;;;;;;5002529;28;9582;-78
2021/06/15 04:44:53;;;;;;;;;15.75;15.75;;;;;;;;5001546;28;8890;-81
2021/06/15 04:47:26;;;;;;;;;15.00;15.00;;;;;;;;5004913;28;9123;-80
2021/06/15 04:49:57;;;;;;;;;13.50;12.00;;;;;;;;5004154;28;8848;-79
2021/06/15 04:52:26;;;;;;;;;17.50;16.00;;;;;;;;5003395;28;8871;-78
2021/06/15 04:54:57;;;;;;;;;11.25;11.25;;;;;;;;5004981;28;8968;-78
2021/06/15 04:57:26;;;;;;;;;16.75;14.75;;;;;;;;5007231;28;8910;-78
2021/06/15 04:59:56;;;;;;;;;19.00;16.75;;;;;;;;5003716;28;8876;-82
2021/06/15 05:02:26;;;;;;;;;20.25;17.50;;;;;;;;5003958;28;8785;-79
2021/06/15 05:04:54;;;;;;;;;15.00;13.75;;;;;;;;5003977;28;8864;-78
2021/06/15 05:07:23;;;;;;;;;17.00;17.00;;;;;;;;5004908;28;8986;-81
2021/06/15 05:09:52;;;;;;;;;17.00;16.33;;;;;;;;5003873;28;8860;-83
2021/06/15 05:12:22;;;;;;;;;15.50;15.50;;;;;;;;5003941;28;8977;-82
2021/06/15 05:14:51;;;;;;;;;15.50;14.00;;;;;;;;5003487;28;8868;-80
2021/06/15 05:17:22;;;;;;;;;18.25;17.00;;;;;;;;5001764;28;8886;-79
2021/06/15 05:19:50;;;;;;;;;17.50;14.50;;;;;;;;5004216;28;8966;-81
2021/06/15 05:22:26;;;;;;;;;18.00;18.00;;;;;;;;5002441;28;8879;-80
2021/06/15 05:24:54;;;;;;;;;15.75;15.75;;;;;;;;5002747;28;8876;-77
2021/06/15 05:27:24;;;;;;;;;19.50;17.25;;;;;;;;5000495;28;9002;-78
2021/06/15 05:29:52;;;;;;;;;18.25;18.25;;;;;;;;5001986;28;8868;-79
2021/06/15 05:32:19;;;;;;;;;21.25;19.50;;;;;;;;5007883;28;8958;-76
2021/06/15 05:34:47;;;;;;;;;16.25;16.25;;;;;;;;5001608;28;9630;-78
2021/06/15 05:37:15;;;;;;;;;18.25;18.25;;;;;;;;5004579;28;8988;-76
2021/06/15 05:39:43;;;;;;;;;19.25;19.25;;;;;;;;5004118;28;8856;-77
2021/06/15 05:42:12;;;;;;;;;21.25;21.25;;;;;;;;5000865;28;9819;-78
2021/06/15 05:44:42;;;;;;;;;19.50;17.25;;;;;;;;5005253;28;8856;-78
2021/06/15 05:47:10;;;;;;;;;19.75;19.75;;;;;;;;5006388;28;8902;-78
2021/06/15 05:49:37;;;;;;;;;21.00;20.00;;;;;;;;5002363;28;9011;-74
2021/06/15 05:52:07;;;;;;;;;19.00;19.00;;;;;;;;4999771;28;8872;-77
2021/06/15 05:54:34;;;;;;;;;19.50;19.50;;;;;;;;5002743;28;8868;-75
2021/06/15 05:57:02;;;;;;;;;20.00;18.75;;;;;;;;5005426;28;8879;-76
2021/06/15 05:59:31;;;;;;;;;21.25;18.75;;;;;;;;5006411;28;8868;-79
2021/06/15 06:02:00;;;;;;;;;24.75;21.75;;;;;;;;5004713;28;9162;-77
2021/06/15 06:04:29;;;;;;;;;20.50;19.50;;;;;;;;5003950;28;8880;-78
2021/06/15 06:09:44;;;;;;;;;22.00;20.75;;;;;;;;5004358;28;8947;-78
2021/06/15 06:12:12;;;;;;;;;24.50;24.00;;;;;;;;5002920;28;8868;-81
2021/06/15 06:14:39;;;;;;;;;23.75;23.00;;;;;;;;5005840;28;8986;-76
2021/06/15 06:17:10;;;;;;;;;22.50;22.50;;;;;;;;5003544;28;8927;-83
2021/06/15 06:19:37;;;;;;;;;20.00;20.00;;;;;;;;5005510;28;8883;-81
2021/06/15 06:22:05;;;;;;;;;21.50;21.50;;;;;;;;5004683;28;8980;-78
2021/06/15 06:24:33;;;;;;;;;22.25;19.50;;;;;;;;5003078;28;8888;-75
2021/06/15 06:27:00;;;;;;;;;20.00;20.00;;;;;;;;5000380;28;9701;-77
2021/06/15 06:29:34;;;;;;;;;22.75;21.25;;;;;;;;5005668;28;8883;-78
2021/06/15 06:32:04;;;;;;;;;21.25;19.50;;;;;;;;5002915;28;8955;-78
2021/06/15 06:34:33;;;;;;;;;21.00;20.50;;;;;;;;5001943;28;8849;-78
2021/06/15 06:37:00;;;;;;;;;22.00;18.75;;;;;;;;5003433;28;8922;-78
2021/06/15 06:39:28;;;;;;;;;19.00;17.50;;;;;;;;5003974;28;8848;-78
2021/06/15 06:41:55;;;;;;;;;19.50;19.50;;;;;;;;5002802;28;8872;-79
2021/06/15 06:44:22;;;;;;;;;22.25;20.00;;;;;;;;5002878;28;8996;-78
2021/06/15 06:46:50;;;;;;;;;20.50;20.50;;;;;;;;5003485;28;8860;-79
2021/06/15 06:49:18;;;;;;;;;22.75;22.75;;;;;;;;5002427;28;9660;-77
2021/06/15 06:51:48;;;;;;;;;18.25;18.25;;;;;;;;5003575;28;8848;-77
2021/06/15 06:54:15;;;;;;;;;19.50;19.50;;;;;;;;5004144;28;9711;-77
2021/06/15 06:56:44;;;;;;;;;18.25;18.25;;;;;;;;5000653;28;8868;-79
2021/06/15 06:59:11;;;;;;;;;26.00;22.50;;;;;;;;4999056;28;9650;-79
2021/06/15 07:01:39;;;;;;;;;18.25;18.00;;;;;;;;5002371;28;8807;-78
2021/06/15 07:04:06;;;;;;;;;19.00;17.00;;;;;;;;4999704;28;8892;-78
2021/06/15 07:06:33;;;;;;;;;21.25;19.50;;;;;;;;5003762;28;8856;-82
2021/06/15 07:09:02;;;;;;;;;21.00;19.00;;;;;;;;4999307;28;8856;-79
2021/06/15 07:11:30;;;;;;;;;19.75;18.75;;;;;;;;5000148;28;8944;-79
2021/06/15 07:13:57;;;;;;;;;20.20;16.80;;;;;;;;4997939;28;8848;-80
2021/06/15 07:16:24;;;;;;;;;24.40;21.20;;;;;;;;5000345;28;8868;-80
2021/06/15 07:18:53;;;;;;;;;15.80;15.80;;;;;;;;5001199;28;8982;-80
2021/06/15 07:21:20;;;;;;;;;19.80;18.20;;;;;;;;4998503;28;8876;-79
2021/06/15 07:23:47;;;;;;;;;14.80;14.80;;;;;;;;4998472;28;8884;-79
2021/06/15 07:26:16;;;;;;;;;22.40;19.00;;;;;;;;5001388;28;8941;-79
2021/06/15 07:28:43;;;;;;;;;19.60;16.60;;;;;;;;5000518;28;8860;-79
2021/06/15 07:31:10;;;;;;;;;20.80;20.80;;;;;;;;4997312;28;8821;-79
2021/06/15 07:33:38;;;;;;;;;21.80;19.60;;;;;;;;5001981;28;8974;-79
2021/06/15 07:36:06;;;;;;;;;20.40;20.40;;;;;;;;5003361;28;8848;-79
2021/06/15 07:38:34;;;;;;;;;17.80;17.40;;;;;;;;4997722;28;8890;-78
2021/06/15 07:41:02;;;;;;;;;16.80;16.40;;;;;;;;5000269;28;8898;-79
2021/06/15 07:43:31;;;;;;;;;12.40;12.40;;;;;;;;4998825;28;8849;-80
2021/06/15 07:45:59;;;;;;;;;16.20;16.00;;;;;;;;5001592;28;9135;-80
2021/06/15 07:48:26;;;;;;;;;11.40;11.40;;;;;;;;5001873;28;8994;-79
2021/06/15 07:50:53;;;;;;;;;12.80;12.80;;;;;;;;5002710;28;8878;-79
2021/06/15 07:53:22;;;;;;;;;17.60;16.80;;;;;;;;5004770;28;8899;-80
2021/06/15 07:55:49;;;;;;;;;24.00;20.00;;;;;;;;4996631;28;9663;-79
2021/06/15 07:58:16;;;;;;;;;19.60;19.20;;;;;;;;5003856;28;8990;-79
2021/06/15 08:00:45;;;;;;;;;17.00;17.00;;;;;;;;5002410;28;8846;-81
2021/06/15 08:03:13;;;;;;;;;18.40;18.40;;;;;;;;5001898;28;8875;-79
2021/06/15 08:05:40;;;;;;;;;20.00;18.60;;;;;;;;5004188;28;8879;-79
2021/06/15 08:08:07;;;;;;;;;20.20;17.80;;;;;;;;5003859;28;8868;-79
2021/06/15 08:10:35;;;;;;;;;20.40;19.40;;;;;;;;5004497;28;8906;-79
2021/06/15 08:13:02;;;;;;;;;17.80;17.80;;;;;;;;4995953;28;8877;-78
2021/06/15 08:15:30;;;;;;;;;16.60;16.60;;;;;;;;5001783;28;8914;-79
2021/06/15 08:17:59;;;;;;;;;19.20;19.20;;;;;;;;5003474;28;8899;-79
2021/06/15 08:20:26;;;;;;;;;17.00;15.20;;;;;;;;5004506;28;8871;-78
2021/06/15 08:22:54;;;;;;;;;17.40;15.60;;;;;;;;5003331;28;8878;-79
2021/06/15 08:25:21;;;;;;;;;17.20;17.20;;;;;;;;4996857;28;8888;-79
2021/06/15 08:27:49;;;;;;;;;18.40;18.20;;;;;;;;5004298;28;8860;-78
2021/06/15 08:30:17;;;;;;;;;16.80;16.80;;;;;;;;5001488;28;8871;-79
2021/06/15 08:32:45;;;;;;;;;16.60;16.20;;;;;;;;5004102;28;8941;-79
2021/06/15 08:35:14;;;;;;;;;18.80;17.00;;;;;;;;4997653;28;8872;-78
2021/06/15 08:37:42;;;;;;;;;18.20;18.20;;;;;;;;5003863;28;8872;-78
2021/06/15 08:40:10;;;;;;;;;17.60;16.60;;;;;;;;5001272;28;8958;-78
2021/06/15 08:42:39;;;;;;;;;16.80;16.60;;;;;;;;5002194;28;8914;-77
2021/06/15 08:45:07;;;;;;;;;18.80;15.60;;;;;;;;5001645;28;8873;-77
2021/06/15 08:47:39;;;;;;;;;19.00;17.00;;;;;;;;4995585;28;8890;-84
2021/06/15 08:50:08;;;;;;;;;15.40;14.40;;;;;;;;5004528;28;9043;-81
2021/06/15 08:52:37;;;;;;;;;18.60;18.40;;;;;;;;5003821;28;8876;-77
2021/06/15 08:55:05;;;;;;;;;16.00;16.00;;;;;;;;5003381;28;8876;-82
2021/06/15 08:57:33;;;;;;;;;13.80;12.00;;;;;;;;5005331;28;8892;-78
2021/06/15 09:00:02;;;;;;;;;17.20;15.00;;;;;;;;5006690;28;8881;-81
2021/06/15 09:02:29;;;;;;;;;17.80;16.20;;;;;;;;5009141;28;8836;-81
2021/06/15 09:04:57;;;;;;;;;16.20;14.60;;;;;;;;5010592;28;8881;-84
2021/06/15 09:07:24;;;;;;;;;11.80;11.80;;;;;;;;5009847;28;8973;-83
2021/06/15 09:09:53;;;;;;;;;16.00;14.60;;;;;;;;5004375;28;9010;-85
2021/06/15 09:12:21;;;;;;;;;8.40;7.00;;;;;;;;5003591;28;8887;-82
2021/06/15 09:14:50;;;;;;;;;19.40;16.40;;;;;;;;5007510;28;9006;-81
2021/06/15 09:17:33;;;;;;;;;12.40;11.80;;;;;;;;5007875;28;8892;-83
2021/06/15 09:20:10;;;;;;;;;10.80;10.80;;;;;;;;5008769;28;8871;-82
2021/06/15 09:22:39;;;;;;;;;12.60;12.60;;;;;;;;5007629;28;8994;-82
2021/06/15 09:25:12;;;;;;;;;16.00;14.20;;;;;;;;5005045;28;8868;-81
2021/06/15 09:27:40;;;;;;;;;18.40;16.20;;;;;;;;5007706;28;8884;-83
2021/06/15 09:30:09;;;;;;;;;16.60;14.00;;;;;;;;5007252;28;8872;-84
2021/06/15 09:32:38;;;;;;;;;12.80;12.80;;;;;;;;5007747;28;8874;-84
2021/06/15 09:35:07;;;;;;;;;12.40;12.40;;;;;;;;5009299;28;9793;-82
2021/06/15 09:37:37;;;;;;;;;15.40;14.40;;;;;;;;5009598;28;8860;-83
2021/06/15 09:40:15;;;;;;;;;13.40;13.40;;;;;;;;5004331;28;8907;-85
2021/06/15 09:43:04;;;;;;;;;15.20;13.20;;;;;;;;5005846;28;9646;-80
2021/06/15 09:45:33;;;;;;;;;12.80;12.80;;;;;;;;5001094;28;8884;-84
2021/06/15 09:48:22;;;;;;;;;18.80;18.80;;;;;;;;5008196;28;8970;-82
2021/06/15 09:50:50;;;;;;;;;14.20;12.20;;;;;;;;4992521;28;8860;-80
2021/06/15 09:53:26;;;;;;;;;15.20;15.20;;;;;;;;5007806;28;8978;-84
2021/06/15 09:55:57;;;;;;;;;13.40;13.40;;;;;;;;5006027;28;8986;-84
2021/06/15 09:58:44;;;;;;;;;12.60;12.60;;;;;;;;5006991;28;8930;-83
2021/06/15 10:01:16;;;;;;;;;14.40;13.20;;;;;;;;5006639;28;8869;-83
2021/06/15 10:03:44;;;;;;;;;12.80;11.80;;;;;;;;5002289;28;8856;-84
2021/06/15 10:06:11;;;;;;;;;11.60;11.60;;;;;;;;5006585;28;9764;-84
2021/06/15 10:08:45;;;;;;;;;13.80;13.80;;;;;;;;5011383;28;8898;-82
2021/06/15 10:11:14;;;;;;;;;11.00;11.00;;;;;;;;5006867;28;8872;-83
2021/06/15 10:13:41;;;;;;;;;11.60;11.60;;;;;;;;5006421;28;8887;-81
2021/06/15 10:16:09;;;;;;;;;11.00;9.60;;;;;;;;5006811;28;8872;-83
2021/06/15 10:18:48;;;;;;;;;11.20;11.20;;;;;;;;5003956;28;8876;-82
2021/06/15 10:21:16;;;;;;;;;10.00;10.00;;;;;;;;5002433;28;8844;-84
2021/06/15 10:23:43;;;;;;;;;10.20;10.20;;;;;;;;5006406;28;8934;-84
2021/06/15 10:26:12;;;;;;;;;11.80;11.00;;;;;;;;5006290;28;8903;-82
2021/06/15 10:28:40;;;;;;;;;10.40;8.60;;;;;;;;5006122;28;8888;-84
2021/06/15 10:31:08;;;;;;;;;10.20;9.60;;;;;;;;5006962;28;8821;-84
2021/06/15 10:33:43;;;;;;;;;9.40;9.40;;;;;;;;5036039;28;9653;-81
2021/06/15 10:36:11;;;;;;;;;10.00;10.00;;;;;;;;5003875;28;8904;-80
2021/06/15 10:38:42;;;;;;;;;9.00;8.60;;;;;;;;5005859;28;8859;-81
2021/06/15 10:41:21;;;;;;;;;9.20;9.20;;;;;;;;4997127;28;8871;-83
2021/06/15 10:43:53;;;;;;;;;11.00;11.00;;;;;;;;5004230;28;8863;-86
2021/06/15 10:46:34;;;;;;;;;7.60;7.60;;;;;;;;5005063;28;8874;-87
2021/06/15 10:49:04;;;;;;;;;12.80;11.80;;;;;;;;5002013;28;8961;-86
2021/06/15 10:51:36;;;;;;;;;10.00;10.00;;;;;;;;5007385;28;8904;-85
2021/06/15 10:54:25;;;;;;;;;10.20;10.20;;;;;;;;5000759;28;8883;-88
2021/06/15 10:57:16;;;;;;;;;11.80;11.80;;;;;;;;4999262;28;8864;-84
2021/06/15 11:00:08;;;;;;;;;9.00;9.00;;;;;;;;5006269;28;8876;-85
2021/06/15 11:02:37;;;;;;;;;10.60;10.00;;;;;;;;5007596;28;8828;-85
2021/06/15 11:05:40;;;;;;;;;13.00;10.60;;;;;;;;5004594;28;8884;-85
2021/06/15 11:08:19;;;;;;;;;8.20;8.20;;;;;;;;5009523;28;8867;-85
2021/06/15 11:10:49;;;;;;;;;9.00;9.00;;;;;;;;4999185;28;8863;-82
2021/06/15 11:13:18;;;;;;;;;8.60;8.60;;;;;;;;5004308;28;8903;-82
2021/06/15 11:15:58;;;;;;;;;10.20;8.80;;;;;;;;5007440;28;8889;-83
2021/06/15 11:18:26;;;;;;;;;12.20;11.00;;;;;;;;5005756;28;8880;-85
2021/06/15 11:20:54;;;;;;;;;11.60;10.80;;;;;;;;5000786;28;8873;-91
2021/06/15 11:23:29;;;;;;;;;8.80;7.80;;;;;;;;5008801;28;8877;-96
2021/06/15 11:26:01;;;;;;;;;11.40;11.40;;;;;;;;5003050;28;8935;-91
2021/06/15 11:28:58;;;;;;;;;9.80;9.80;;;;;;;;5004980;28;8872;-93
2021/06/15 11:31:37;;;;;;;;;9.20;9.00;;;;;;;;5005196;28;8861;-92
2021/06/15 11:34:16;;;;;;;;;9.00;8.80;;;;;;;;5000856;28;9740;-83
2021/06/15 11:36:51;;;;;;;;;10.60;8.60;;;;;;;;5000686;28;8875;-85
2021/06/15 11:39:36;;;;;;;;;11.80;11.40;;;;;;;;5004694;28;9692;-89
2021/06/15 11:42:25;;;;;;;;;11.00;11.00;;;;;;;;4997380;28;8907;-85
2021/06/15 11:45:02;;;;;;;;;12.20;11.00;;;;;;;;5000179;28;9661;-86
2021/06/15 11:47:36;;;;;;;;;9.60;9.60;;;;;;;;5001884;28;8860;-88
2021/06/15 11:50:27;;;;;;;;;10.40;10.40;;;;;;;;4998688;28;9629;-83
2021/06/15 11:53:01;;;;;;;;;8.40;8.40;;;;;;;;4982857;28;9033;-87
2021/06/15 11:55:32;;;;;;;;;10.60;10.60;;;;;;;;5004875;28;8884;-86
2021/06/15 11:58:01;;;;;;;;;8.60;8.60;;;;;;;;5003684;28;8960;-88
2021/06/15 12:00:31;;;;;;;;;10.00;8.80;;;;;;;;5000306;28;8874;-88
2021/06/15 12:03:13;;;;;;;;;10.60;9.80;;;;;;;;5004060;28;8919;-89
2021/06/15 12:05:42;;;;;;;;;10.60;10.60;;;;;;;;5003886;28;9038;-88
2021/06/15 12:08:09;;;;;;;;;9.80;9.80;;;;;;;;5004677;28;8894;-89
2021/06/15 12:10:37;;;;;;;;;9.00;9.00;;;;;;;;5004297;28;8882;-87
2021/06/15 12:13:18;;;;;;;;;10.00;10.00;;;;;;;;5009895;28;8884;-83
2021/06/15 12:15:53;;;;;;;;;8.80;8.80;;;;;;;;5002786;28;8890;-87
2021/06/15 12:18:41;;;;;;;;;10.20;9.00;;;;;;;;5005692;28;8922;-87
2021/06/15 12:21:12;;;;;;;;;10.60;9.20;;;;;;;;5004293;28;9006;-86
2021/06/15 12:23:42;;;;;;;;;9.60;9.60;;;;;;;;5004919;28;8856;-86
2021/06/15 12:26:15;;;;;;;;;11.20;10.60;;;;;;;;5004881;28;8888;-84
2021/06/15 12:28:44;;;;;;;;;11.20;8.00;;;;;;;;5006473;28;8920;-87
2021/06/15 12:31:16;;;;;;;;;8.00;8.00;;;;;;;;4998977;28;8836;-88
2021/06/15 12:33:44;;;;;;;;;11.80;8.00;;;;;;;;5007460;28;8868;-86
2021/06/15 12:36:13;;;;;;;;;8.40;8.20;;;;;;;;5005940;28;9642;-83
2021/06/15 12:38:41;;;;;;;;;9.00;8.00;;;;;;;;5004624;28;8875;-87
2021/06/15 12:41:12;;;;;;;;;8.60;8.60;;;;;;;;5004588;28;8972;-87
2021/06/15 12:43:40;;;;;;;;;9.80;9.80;;;;;;;;5001436;28;9541;-84
2021/06/15 12:46:14;;;;;;;;;8.80;8.80;;;;;;;;4998671;28;8969;-88
2021/06/15 12:48:56;;;;;;;;;9.20;9.00;;;;;;;;5008208;28;8836;-88
2021/06/15 12:51:26;;;;;;;;;8.40;8.40;;;;;;;;5007880;28;8982;-88
2021/06/15 12:54:02;;;;;;;;;8.20;8.20;;;;;;;;5005938;28;8979;-89
2021/06/15 12:56:31;;;;;;;;;6.20;6.20;;;;;;;;5005099;28;8864;-87
2021/06/15 12:59:00;;;;;;;;;8.60;7.00;;;;;;;;5005462;28;8876;-80
2021/06/15 13:01:35;;;;;;;;;7.40;7.40;;;;;;;;5006627;28;8813;-86
2021/06/15 13:04:17;;;;;;;;;8.60;8.00;;;;;;;;5007531;28;8887;-80
2021/06/15 13:06:45;;;;;;;;;9.00;9.00;;;;;;;;5006838;28;8935;-88
2021/06/15 13:09:14;;;;;;;;;6.80;6.80;;;;;;;;5008775;28;8876;-88
2021/06/15 13:11:59;;;;;;;;;7.40;7.40;;;;;;;;5008571;28;8864;-89
2021/06/15 13:14:27;;;;;;;;;9.60;8.00;;;;;;;;5006283;28;8937;-88
2021/06/15 13:17:05;;;;;;;;;10.60;10.60;;;;;;;;5003272;28;8878;-87
2021/06/15 13:19:46;;;;;;;;;11.40;9.80;;;;;;;;5009220;28;8990;-86
2021/06/15 13:22:19;;;;;;;;;10.80;9.40;;;;;;;;5005419;28;8864;-86
2021/06/15 13:24:48;;;;;;;;;9.00;9.00;;;;;;;;5000469;28;8887;-87
2021/06/15 13:27:29;;;;;;;;;7.80;7.00;;;;;;;;5005426;28;8895;-87
2021/06/15 13:30:01;;;;;;;;;11.20;8.60;;;;;;;;5007561;28;8876;-86
2021/06/15 13:32:30;;;;;;;;;8.00;8.00;;;;;;;;5001766;28;8816;-87
2021/06/15 13:35:04;;;;;;;;;7.80;7.80;;;;;;;;5004149;28;8868;-87
2021/06/15 13:37:33;;;;;;;;;11.00;9.00;;;;;;;;5005639;28;8892;-88
2021/06/15 13:40:00;;;;;;;;;8.00;8.00;;;;;;;;5002425;28;9018;-86
2021/06/15 13:42:29;;;;;;;;;11.40;8.00;;;;;;;;5005023;28;8868;-85
2021/06/15 13:45:09;;;;;;;;;8.20;8.20;;;;;;;;5004617;28;8836;-80
2021/06/15 13:47:38;;;;;;;;;10.40;10.40;;;;;;;;5001384;28;8882;-86
2021/06/15 13:50:07;;;;;;;;;9.20;7.60;;;;;;;;4993725;28;8872;-85
2021/06/15 13:52:35;;;;;;;;;9.60;9.60;;;;;;;;5004733;28;8868;-86
2021/06/15 13:55:04;;;;;;;;;8.80;8.80;;;;;;;;5006008;28;8902;-85
2021/06/15 13:57:31;;;;;;;;;10.00;8.60;;;;;;;;5005182;28;8876;-87
2021/06/15 13:59:59;;;;;;;;;8.60;8.60;;;;;;;;5004687;28;9724;-86
2021/06/15 14:02:26;;;;;;;;;10.00;10.00;;;;;;;;5003071;28;8817;-86
2021/06/15 14:04:55;;;;;;;;;9.00;9.00;;;;;;;;5006208;28;8848;-85
2021/06/15 14:07:22;;;;;;;;;9.00;9.00;;;;;;;;5007524;28;8872;-85
2021/06/15 14:09:50;;;;;;;;;7.80;7.80;;;;;;;;5004348;28;8902;-85
2021/06/15 14:12:17;;;;;;;;;6.80;6.80;;;;;;;;5007747;28;9002;-85
2021/06/15 14:14:44;;;;;;;;;7.00;7.00;;;;;;;;5003529;28;8954;-85
2021/06/15 14:17:11;;;;;;;;;9.00;9.00;;;;;;;;5006907;28;8884;-86
2021/06/15 14:19:39;;;;;;;;;10.00;8.20;;;;;;;;5006798;28;8899;-84
2021/06/15 14:22:07;;;;;;;;;8.80;7.80;;;;;;;;5006173;28;9031;-84
2021/06/15 14:24:35;;;;;;;;;9.60;9.60;;;;;;;;4999138;28;8933;-87
2021/06/15 14:27:02;;;;;;;;;8.80;8.80;;;;;;;;5004995;28;8865;-86
2021/06/15 14:29:31;;;;;;;;;7.60;7.60;;;;;;;;5005785;28;8880;-80
2021/06/15 14:31:58;;;;;;;;;11.60;11.60;;;;;;;;5005506;28;8808;-86
2021/06/15 14:34:27;;;;;;;;;8.40;8.40;;;;;;;;5003326;28;8974;-89
2021/06/15 14:36:54;;;;;;;;;8.20;8.20;;;;;;;;5009891;28;8898;-89
2021/06/15 14:39:23;;;;;;;;;8.80;8.80;;;;;;;;5009012;28;8868;-85
2021/06/15 14:41:50;;;;;;;;;8.00;8.00;;;;;;;;5001949;28;8875;-86
2021/06/15 14:44:17;;;;;;;;;9.40;9.40;;;;;;;;5005857;28;9625;-91
2021/06/15 14:46:45;;;;;;;;;9.00;8.80;;;;;;;;5007325;28;9015;-90
2021/06/15 14:49:12;;;;;;;;;10.00;10.00;;;;;;;;5005865;28;8879;-84
2021/06/15 14:51:39;;;;;;;;;8.40;8.40;;;;;;;;5007244;28;8987;-89
2021/06/15 14:54:06;;;;;;;;;7.40;7.40;;;;;;;;5005453;28;9011;-89
2021/06/15 14:56:37;;;;;;;;;9.40;9.40;;;;;;;;5006566;28;8888;-83
2021/06/15 14:59:05;;;;;;;;;8.00;8.00;;;;;;;;5007510;28;8864;-90
2021/06/15 15:01:33;;;;;;;;;7.80;7.80;;;;;;;;5004712;28;8820;-83
2021/06/15 15:04:00;;;;;;;;;8.20;8.20;;;;;;;;5004528;28;8898;-81